Time;durP1;ratioP1;P1;durP2;ratioP2;P2;SDS_P1;SDS_P2;PMS_P1;PMS_P2;Temp;Humidity;BMP_temperature;BMP_pressure;BME280_temperature;BME280_humidity;BME280_pressure;Samples;Min_cycle;Max_cycle;Signal;HPM_P1;HPM_P2
2021/07/05 00:00:34;;;;;;;3.13;0.80;;;;;;;14.23;nan;96278.03;3548996;40;20840;-72
2021/07/05 00:03:02;;;;;;;2.00;1.00;;;;;;;14.24;nan;96280.50;3550787;40;20859;-72
2021/07/05 00:05:30;;;;;;;1.47;0.90;;;;;;;14.20;nan;96289.66;3550614;40;20912;-73
2021/07/05 00:07:58;;;;;;;5.60;1.20;;;;;;;14.20;nan;96283.56;3549946;40;20465;-71
2021/07/05 00:10:28;;;;;;;2.60;0.80;;;;;;;14.21;nan;96287.84;3549127;40;20552;-71
2021/07/05 00:12:56;;;;;;;2.07;0.93;;;;;;;14.16;nan;96279.53;3547805;40;20889;-71
2021/07/05 00:15:27;;;;;;;1.37;0.80;;;;;;;14.17;nan;96275.91;3550377;40;20927;-70
2021/07/05 00:18:00;;;;;;;2.50;0.93;;;;;;;14.15;nan;96275.22;3551134;40;20504;-72
2021/07/05 00:20:31;;;;;;;2.17;1.10;;;;;;;14.23;nan;96267.50;3547803;40;20843;-71
2021/07/05 00:22:59;;;;;;;1.83;1.00;;;;;;;14.24;nan;96274.41;3555254;40;20482;-71
2021/07/05 00:25:27;;;;;;;4.40;0.93;;;;;;;14.26;nan;96272.47;3547989;40;20815;-74
2021/07/05 00:27:55;;;;;;;5.30;1.20;;;;;;;14.33;nan;96270.97;3550347;40;20798;-72
2021/07/05 00:30:24;;;;;;;1.13;0.93;;;;;;;14.39;nan;96262.53;3549000;40;20481;-73
2021/07/05 00:32:53;;;;;;;1.77;1.07;;;;;;;14.37;nan;96256.56;3550634;40;20465;-72
2021/07/05 00:35:25;;;;;;;3.00;1.03;;;;;;;14.41;nan;96251.84;3548058;40;20843;-73
2021/07/05 00:37:55;;;;;;;1.60;1.00;;;;;;;14.44;nan;96256.84;3548698;40;20449;-72
2021/07/05 00:40:24;;;;;;;1.83;1.13;;;;;;;14.47;nan;96255.75;3551297;40;20563;-71
2021/07/05 00:42:55;;;;;;;2.27;0.80;;;;;;;14.47;nan;96268.91;3552184;40;20451;-70
2021/07/05 00:45:25;;;;;;;2.80;1.10;;;;;;;14.50;nan;96268.63;3546956;40;20922;-72
2021/07/05 00:47:53;;;;;;;4.83;0.90;;;;;;;14.47;nan;96266.28;3547674;40;20443;-71
2021/07/05 00:50:27;;;;;;;7.30;1.00;;;;;;;14.52;nan;96261.41;3548174;40;20460;-71
2021/07/05 00:52:57;;;;;;;3.60;1.10;;;;;;;14.56;nan;96265.44;3549089;40;20484;-72
2021/07/05 00:55:26;;;;;;;1.23;0.90;;;;;;;14.62;nan;96262.28;3548170;40;20533;-72
2021/07/05 00:57:54;;;;;;;1.50;1.10;;;;;;;14.67;nan;96269.78;3548330;40;20820;-71
2021/07/05 01:00:24;;;;;;;2.27;1.43;;;;;;;14.68;nan;96259.09;3546862;40;20498;-71
2021/07/05 01:02:53;;;;;;;3.23;1.30;;;;;;;14.69;nan;96258.13;3550836;40;20536;-72
2021/07/05 01:05:23;;;;;;;2.97;1.17;;;;;;;14.59;nan;96262.56;3550634;40;20927;-71
2021/07/05 01:07:51;;;;;;;2.67;1.00;;;;;;;14.56;nan;96257.53;3549719;40;20844;-72
2021/07/05 01:10:21;;;;;;;4.83;1.10;;;;;;;14.58;nan;96256.47;3546558;40;20525;-71
2021/07/05 01:12:50;;;;;;;1.63;1.10;;;;;;;14.54;nan;96254.19;3547585;40;20439;-73
2021/07/05 01:15:21;;;;;;;2.70;1.10;;;;;;;14.48;nan;96255.59;3546957;40;20521;-73
2021/07/05 01:17:53;;;;;;;3.63;1.07;;;;;;;14.46;nan;96249.63;3548815;40;20479;-70
2021/07/05 01:20:24;;;;;;;3.43;1.10;;;;;;;14.39;nan;96246.72;3549124;40;20697;-72
2021/07/05 01:22:54;;;;;;;2.87;1.33;;;;;;;14.28;nan;96244.22;3548417;40;20470;-71
2021/07/05 01:25:25;;;;;;;3.37;1.00;;;;;;;14.22;nan;96242.13;3549003;40;20981;-72
2021/07/05 01:27:53;;;;;;;1.80;1.27;;;;;;;14.12;nan;96244.75;3547668;40;21067;-72
2021/07/05 01:30:23;;;;;;;1.30;1.00;;;;;;;14.12;nan;96239.47;3549191;40;20463;-71
2021/07/05 01:32:54;;;;;;;3.23;0.90;;;;;;;14.17;nan;96241.69;3548668;40;20918;-71
2021/07/05 01:35:22;;;;;;;2.60;1.20;;;;;;;14.12;nan;96246.56;3547634;40;20478;-71
2021/07/05 01:37:50;;;;;;;3.17;1.07;;;;;;;14.12;nan;96250.00;3547704;40;20848;-71
2021/07/05 01:40:20;;;;;;;7.20;1.40;;;;;;;14.02;nan;96244.72;3547586;40;20478;-71
2021/07/05 01:42:51;;;;;;;1.33;1.10;;;;;;;14.07;nan;96236.41;3551944;40;20823;-71
2021/07/05 01:45:20;;;;;;;7.80;1.30;;;;;;;14.03;nan;96243.78;3546920;40;21044;-71
2021/07/05 01:47:48;;;;;;;2.60;1.00;;;;;;;14.03;nan;96224.50;3547338;40;21207;-71
2021/07/05 01:50:17;;;;;;;1.57;1.00;;;;;;;13.91;nan;96207.97;3547123;40;20474;-71
2021/07/05 01:52:45;;;;;;;6.53;0.97;;;;;;;13.94;nan;96220.88;3548448;40;20839;-71
2021/07/05 01:55:13;;;;;;;1.97;1.30;;;;;;;13.94;nan;96220.88;3549352;40;20972;-71
2021/07/05 01:57:42;;;;;;;9.80;1.10;;;;;;;13.96;nan;96229.47;3548543;40;20474;-71
2021/07/05 02:00:13;;;;;;;2.00;1.00;;;;;;;14.10;nan;96235.31;3547468;40;20937;-72
2021/07/05 02:02:41;;;;;;;3.40;1.20;;;;;;;14.09;nan;96218.66;3550301;40;20550;-71
2021/07/05 02:05:12;;;;;;;1.43;1.33;;;;;;;14.01;nan;96219.38;3547196;40;20568;-72
2021/07/05 02:07:41;;;;;;;3.80;1.20;;;;;;;14.10;nan;96201.91;3552464;40;20451;-71
2021/07/05 02:10:11;;;;;;;2.07;1.00;;;;;;;14.14;nan;96208.56;3546336;40;20772;-71
2021/07/05 02:12:40;;;;;;;3.77;1.20;;;;;;;14.16;nan;96203.19;3546837;40;20552;-70
2021/07/05 02:15:12;;;;;;;3.33;1.03;;;;;;;14.12;nan;96213.16;3550130;40;20724;-72
2021/07/05 02:17:40;;;;;;;3.80;1.30;;;;;;;14.11;nan;96208.00;3548934;40;20533;-71
2021/07/05 02:20:11;;;;;;;2.20;1.17;;;;;;;14.21;nan;96216.75;3551895;40;20779;-72
2021/07/05 02:22:39;;;;;;;4.97;1.70;;;;;;;14.17;nan;96215.34;3550596;40;20917;-72
2021/07/05 02:25:09;;;;;;;2.30;1.50;;;;;;;14.20;nan;96215.91;3550676;40;20469;-72
2021/07/05 02:27:38;;;;;;;3.27;1.50;;;;;;;14.13;nan;96213.97;3549943;40;20467;-71
2021/07/05 02:30:08;;;;;;;7.00;1.53;;;;;;;14.14;nan;96215.66;3554833;40;20543;-71
2021/07/05 02:32:40;;;;;;;6.23;1.13;;;;;;;14.17;nan;96215.34;3552909;40;20450;-71
2021/07/05 02:35:11;;;;;;;3.60;1.20;;;;;;;14.14;nan;96210.38;3550327;40;20767;-72
2021/07/05 02:37:39;;;;;;;2.70;1.40;;;;;;;14.07;nan;96204.81;3547970;40;20451;-71
2021/07/05 02:40:10;;;;;;;1.70;1.10;;;;;;;14.01;nan;96200.94;3547789;40;20917;-72
2021/07/05 02:42:38;;;;;;;1.43;1.23;;;;;;;14.06;nan;96213.69;3551210;40;20536;-73
2021/07/05 02:45:08;;;;;;;2.23;1.37;;;;;;;14.00;nan;96204.53;3551075;40;20462;-71
2021/07/05 02:47:38;;;;;;;1.67;1.13;;;;;;;13.96;nan;96213.69;3548725;40;20560;-71
2021/07/05 02:50:07;;;;;;;8.00;1.40;;;;;;;13.88;nan;96212.66;3551352;40;20473;-71
2021/07/05 02:52:35;;;;;;;1.87;1.10;;;;;;;13.88;nan;96213.53;3547352;40;20491;-71
2021/07/05 02:55:04;;;;;;;3.03;1.10;;;;;;;14.01;nan;96213.25;3549876;40;20563;-71
2021/07/05 02:57:32;;;;;;;1.53;1.30;;;;;;;13.85;nan;96217.25;3551985;40;20462;-71
2021/07/05 03:00:02;;;;;;;6.80;1.13;;;;;;;13.88;nan;96215.31;3547952;40;20478;-71
2021/07/05 03:02:31;;;;;;;2.13;1.33;;;;;;;13.81;nan;96212.41;3551352;40;20842;-71
2021/07/05 03:05:01;;;;;;;2.33;1.20;;;;;;;13.85;nan;96211.16;3553278;40;20936;-71
2021/07/05 03:07:29;;;;;;;4.20;1.00;;;;;;;13.86;nan;96215.47;3548033;40;20526;-72
2021/07/05 03:09:56;;;;;;;2.70;1.00;;;;;;;13.85;nan;96226.94;3550543;40;20471;-71
2021/07/05 03:12:24;;;;;;;1.93;1.27;;;;;;;13.86;nan;96226.00;3550414;40;20568;-71
2021/07/05 03:14:54;;;;;;;2.50;1.30;;;;;;;13.85;nan;96219.03;3547288;40;21068;-71
2021/07/05 03:17:22;;;;;;;2.83;1.40;;;;;;;13.81;nan;96215.84;3547913;40;20783;-72
2021/07/05 03:19:50;;;;;;;3.93;1.33;;;;;;;13.77;nan;96211.00;3547295;40;20471;-70
2021/07/05 03:22:19;;;;;;;5.57;1.30;;;;;;;13.76;nan;96201.44;3550689;40;20470;-71
2021/07/05 03:24:47;;;;;;;5.50;1.70;;;;;;;13.67;nan;96200.44;3548178;40;21318;-72
2021/07/05 03:27:15;;;;;;;1.73;1.37;;;;;;;13.65;nan;96208.47;3546710;40;20859;-71
2021/07/05 03:29:43;;;;;;;3.27;1.20;;;;;;;13.73;nan;96213.06;3548513;40;20958;-72
2021/07/05 03:32:11;;;;;;;3.73;1.37;;;;;;;13.63;nan;96214.84;3545363;40;20686;-72
2021/07/05 03:34:39;;;;;;;2.87;1.40;;;;;;;13.67;nan;96204.88;3546113;40;20466;-72
2021/07/05 03:37:07;;;;;;;3.17;1.10;;;;;;;13.67;nan;96195.19;3546818;40;20562;-72
2021/07/05 03:39:37;;;;;;;2.20;1.20;;;;;;;13.64;nan;96191.03;3547689;40;20545;-72
2021/07/05 03:42:05;;;;;;;8.33;1.83;;;;;;;13.57;nan;96191.69;3550218;40;20486;-72
2021/07/05 03:44:33;;;;;;;3.93;1.80;;;;;;;13.47;nan;96173.25;3551628;40;20458;-71
2021/07/05 03:47:01;;;;;;;1.53;1.10;;;;;;;13.58;nan;96182.81;3550848;40;20847;-71
2021/07/05 03:49:29;;;;;;;2.53;1.40;;;;;;;13.61;nan;96178.13;3547527;40;20873;-72
2021/07/05 03:51:57;;;;;;;2.67;1.40;;;;;;;13.62;nan;96179.81;3547468;40;20835;-72
2021/07/05 03:54:25;;;;;;;5.27;1.40;;;;;;;13.60;nan;96179.13;3548095;40;21208;-72
2021/07/05 03:56:55;;;;;;;5.10;1.17;;;;;;;13.71;nan;96186.06;3549946;40;20722;-70
2021/07/05 03:59:23;;;;;;;11.47;1.80;;;;;;;13.74;nan;96182.31;3549159;40;20690;-71
2021/07/05 04:01:51;;;;;;;10.60;1.90;;;;;;;13.75;nan;96186.63;3548670;40;21050;-71
2021/07/05 04:04:21;;;;;;;2.70;1.17;;;;;;;13.79;nan;96195.91;3546758;40;20724;-71
2021/07/05 04:06:50;;;;;;;1.60;1.10;;;;;;;13.87;nan;96197.88;3548404;40;20963;-70
2021/07/05 04:09:19;;;;;;;1.50;1.03;;;;;;;13.96;nan;96192.63;3548450;40;21090;-72
2021/07/05 04:11:47;;;;;;;3.53;1.50;;;;;;;13.97;nan;96198.72;3550725;40;20458;-72
2021/07/05 04:14:16;;;;;;;3.17;1.10;;;;;;;13.96;nan;96202.31;3546910;40;20788;-70
2021/07/05 04:16:46;;;;;;;1.10;1.00;;;;;;;14.00;nan;96199.28;3550597;40;20545;-72
2021/07/05 04:19:15;;;;;;;1.83;1.00;;;;;;;14.03;nan;96213.97;3545720;40;20495;-71
2021/07/05 04:21:43;;;;;;;2.37;1.10;;;;;;;14.06;nan;96218.97;3548877;40;20666;-73
2021/07/05 04:24:11;;;;;;;3.47;1.30;;;;;;;14.14;nan;96221.75;3549522;40;20451;-70
2021/07/05 04:26:38;;;;;;;3.80;1.60;;;;;;;14.11;nan;96221.16;3549225;40;20463;-71
2021/07/05 04:29:06;;;;;;;2.13;1.30;;;;;;;14.21;nan;96222.00;3548515;40;20944;-73
2021/07/05 04:31:36;;;;;;;3.87;1.00;;;;;;;14.23;nan;96226.19;3550476;40;20680;-71
2021/07/05 04:34:08;;;;;;;4.00;1.33;;;;;;;14.43;nan;96231.47;3545853;40;20471;-73
2021/07/05 04:36:37;;;;;;;5.37;1.30;;;;;;;14.31;nan;96222.03;3549702;40;20859;-73
2021/07/05 04:39:06;;;;;;;4.10;1.17;;;;;;;14.48;nan;96228.41;3547982;40;20960;-72
2021/07/05 04:41:37;;;;;;;2.07;1.33;;;;;;;14.54;nan;96226.03;3548525;40;20435;-74
2021/07/05 04:44:05;;;;;;;3.10;1.50;;;;;;;14.56;nan;96216.25;3551495;40;20478;-75
2021/07/05 04:46:33;;;;;;;2.57;1.27;;;;;;;14.59;nan;96223.88;3550419;40;20454;-73
2021/07/05 04:49:03;;;;;;;3.67;1.23;;;;;;;14.67;nan;96211.81;3550712;40;20468;-74
2021/07/05 04:51:31;;;;;;;2.20;1.20;;;;;;;14.62;nan;96215.69;3549878;40;20501;-74
2021/07/05 04:53:59;;;;;;;15.77;1.53;;;;;;;14.53;nan;96211.22;3554056;40;20850;-74
2021/07/05 04:56:26;;;;;;;12.90;2.50;;;;;;;14.60;nan;96209.75;3547002;40;20464;-74
2021/07/05 04:58:55;;;;;;;2.30;1.47;;;;;;;14.59;nan;96217.78;3552044;40;20836;-73
2021/07/05 05:01:22;;;;;;;4.07;1.50;;;;;;;14.68;nan;96208.19;3557843;40;20490;-74
2021/07/05 05:03:50;;;;;;;2.40;1.43;;;;;;;14.75;nan;96204.03;3557703;40;20962;-74
2021/07/05 05:06:20;;;;;;;5.63;1.30;;;;;;;14.63;nan;96201.53;3548105;40;20995;-74
2021/07/05 05:08:49;;;;;;;2.37;1.50;;;;;;;14.60;nan;96208.88;3549559;40;20832;-74
2021/07/05 05:11:17;;;;;;;11.17;1.27;;;;;;;14.57;nan;96222.34;3550603;40;20482;-75
2021/07/05 05:13:44;;;;;;;2.00;1.07;;;;;;;14.62;nan;96218.34;3553860;40;20927;-76
2021/07/05 05:16:13;;;;;;;7.87;1.20;;;;;;;14.61;nan;96229.00;3547759;40;20460;-74
2021/07/05 05:18:41;;;;;;;7.20;1.23;;;;;;;14.58;nan;96230.13;3548785;40;20505;-73
2021/07/05 05:21:10;;;;;;;3.77;1.40;;;;;;;14.59;nan;96229.13;3552576;40;20968;-74
2021/07/05 05:23:40;;;;;;;3.53;1.40;;;;;;;14.59;nan;96241.50;3549914;40;20941;-76
2021/07/05 05:26:08;;;;;;;2.33;1.23;;;;;;;14.53;nan;96228.84;3549282;40;20859;-73
2021/07/05 05:28:36;;;;;;;2.03;1.83;;;;;;;14.56;nan;96241.72;3549185;40;20855;-75
2021/07/05 05:31:04;;;;;;;2.13;1.20;;;;;;;14.56;nan;96234.72;3549545;40;20474;-74
2021/07/05 05:33:32;;;;;;;1.10;1.00;;;;;;;14.54;nan;96236.59;3550659;40;20471;-73
2021/07/05 05:36:00;;;;;;;5.90;2.30;;;;;;;14.62;nan;96238.56;3550735;40;20828;-74
2021/07/05 05:38:28;;;;;;;8.30;3.30;;;;;;;14.65;nan;96242.75;3551136;40;20995;-73
2021/07/05 05:40:57;;;;;;;6.20;3.10;;;;;;;14.66;nan;96245.22;3548771;40;20563;-75
2021/07/05 05:43:25;;;;;;;7.77;3.23;;;;;;;14.71;nan;96242.19;3553158;40;20739;-72
2021/07/05 05:45:59;;;;;;;11.53;3.43;;;;;;;14.77;nan;96236.34;3549526;40;20641;-73
2021/07/05 05:48:28;;;;;;;5.57;2.83;;;;;;;14.72;nan;96242.03;3552074;40;20865;-71
2021/07/05 05:50:56;;;;;;;4.53;2.50;;;;;;;14.73;nan;96245.50;3553112;40;20474;-73
2021/07/05 05:53:24;;;;;;;2.40;1.40;;;;;;;14.65;nan;96246.19;3550156;40;20439;-73
2021/07/05 05:55:52;;;;;;;4.77;3.03;;;;;;;14.61;nan;96250.91;3549450;40;20866;-71
2021/07/05 05:58:22;;;;;;;3.23;1.70;;;;;;;14.61;nan;96242.19;3549851;40;20459;-71
2021/07/05 06:00:49;;;;;;;2.50;1.60;;;;;;;14.61;nan;96247.44;3552613;40;20474;-73
2021/07/05 06:03:17;;;;;;;2.50;1.50;;;;;;;14.66;nan;96247.03;3550976;40;20467;-72
2021/07/05 06:05:45;;;;;;;2.00;1.40;;;;;;;14.69;nan;96244.94;3549005;40;20952;-72
2021/07/05 06:08:13;;;;;;;4.37;1.43;;;;;;;14.65;nan;96246.19;3549546;40;20537;-71
2021/07/05 06:10:42;;;;;;;3.13;1.20;;;;;;;14.60;nan;96246.63;3549722;40;20495;-71
2021/07/05 06:13:10;;;;;;;3.23;1.10;;;;;;;14.67;nan;96240.78;3551125;40;20767;-71
2021/07/05 06:15:40;;;;;;;2.07;1.27;;;;;;;14.71;nan;96239.53;3550193;40;20981;-71
2021/07/05 06:18:08;;;;;;;7.57;1.07;;;;;;;14.60;nan;96222.06;3550400;40;20546;-74
2021/07/05 06:20:36;;;;;;;2.17;1.17;;;;;;;14.66;nan;96232.03;3550201;40;20848;-72
2021/07/05 06:23:16;;;;;;;2.33;1.20;;;;;;;14.78;nan;96228.31;3549013;40;20775;-72
2021/07/05 06:25:44;;;;;;;1.87;1.10;;;;;;;14.74;nan;96226.91;3552826;40;20552;-73
2021/07/05 06:28:12;;;;;;;4.10;1.00;;;;;;;14.77;nan;96229.25;3555520;40;20685;-72
2021/07/05 06:30:41;;;;;;;1.20;1.10;;;;;;;14.71;nan;96234.28;3552675;40;20481;-70
2021/07/05 06:33:09;;;;;;;11.50;7.90;;;;;;;14.82;nan;96239.41;3551799;40;20548;-71
2021/07/05 06:35:38;;;;;;;3.50;1.20;;;;;;;14.89;nan;96247.56;3550595;40;20928;-72
2021/07/05 06:38:06;;;;;;;4.90;1.10;;;;;;;14.82;nan;96240.22;3551790;40;20836;-70
2021/07/05 06:40:34;;;;;;;2.40;1.13;;;;;;;14.89;nan;96244.94;3551283;40;20459;-71
2021/07/05 06:43:02;;;;;;;2.80;1.30;;;;;;;14.79;nan;96237.03;3554468;40;20458;-71
2021/07/05 06:45:30;;;;;;;3.50;1.00;;;;;;;14.89;nan;96237.84;3553565;40;20862;-71
2021/07/05 06:48:00;;;;;;;1.47;1.07;;;;;;;14.87;nan;96238.97;3548809;40;20455;-74
2021/07/05 06:50:29;;;;;;;5.20;1.43;;;;;;;14.74;nan;96245.38;3550776;40;20850;-73
2021/07/05 06:52:57;;;;;;;2.90;1.57;;;;;;;14.85;nan;96246.19;3550614;40;20458;-74
2021/07/05 06:55:25;;;;;;;2.50;1.40;;;;;;;14.82;nan;96237.59;3547907;40;20493;-72
2021/07/05 06:57:54;;;;;;;1.80;1.10;;;;;;;14.89;nan;96240.47;3549010;40;20674;-71
2021/07/05 07:00:23;;;;;;;4.60;1.50;;;;;;;14.94;nan;96240.09;3548529;40;20815;-73
2021/07/05 07:02:52;;;;;;;7.03;1.50;;;;;;;14.89;nan;96242.28;3547848;40;20456;-71
2021/07/05 07:05:23;;;;;;;1.60;1.00;;;;;;;15.05;nan;96239.91;3547799;40;20929;-71
2021/07/05 07:07:53;;;;;;;2.03;1.10;;;;;;;15.05;nan;96239.91;3551445;40;20945;-73
2021/07/05 07:10:22;;;;;;;2.20;1.20;;;;;;;15.07;nan;96237.94;3548436;40;20509;-72
2021/07/05 07:12:53;;;;;;;1.90;1.27;;;;;;;15.06;nan;96233.66;3545543;40;20795;-73
2021/07/05 07:15:44;;;;;;;1.80;1.20;;;;;;;15.17;nan;96235.28;3550521;40;20503;-73
2021/07/05 07:18:22;;;;;;;24.70;13.50;;;;;;;15.11;nan;96231.44;3553175;40;20533;-73
2021/07/05 07:20:51;;;;;;;8.30;1.90;;;;;;;15.13;nan;96237.41;3550894;40;20984;-73
2021/07/05 07:23:19;;;;;;;1.67;1.10;;;;;;;15.25;nan;96226.66;3548536;40;20452;-74
2021/07/05 07:25:47;;;;;;;2.87;1.17;;;;;;;15.27;nan;96225.56;3545548;40;20971;-73
2021/07/05 07:28:15;;;;;;;1.00;0.90;;;;;;;15.28;nan;96231.66;3548342;40;21309;-74
2021/07/05 07:30:43;;;;;;;7.37;1.60;;;;;;;15.38;nan;96232.47;3549394;40;20872;-75
2021/07/05 07:33:11;;;;;;;4.70;1.60;;;;;;;15.48;nan;96233.25;3549259;40;20750;-74
2021/07/05 07:35:39;;;;;;;5.77;1.63;;;;;;;15.29;nan;96225.41;3549430;40;20459;-73
2021/07/05 07:38:09;;;;;;;7.20;2.20;;;;;;;15.41;nan;96226.91;3546888;40;20914;-73
2021/07/05 07:40:39;;;;;;;2.23;1.20;;;;;;;15.56;nan;96230.75;3552160;40;20452;-71
2021/07/05 07:43:07;;;;;;;4.90;1.97;;;;;;;15.58;nan;96223.50;3550324;40;20447;-72
2021/07/05 07:45:35;;;;;;;2.53;1.50;;;;;;;15.60;nan;96232.13;3547911;40;20737;-71
2021/07/05 07:48:03;;;;;;;2.50;1.20;;;;;;;15.51;nan;96235.63;3549069;40;20855;-74
2021/07/05 07:50:31;;;;;;;10.60;1.30;;;;;;;15.56;nan;96237.81;3550563;40;20882;-73
2021/07/05 07:52:59;;;;;;;1.73;1.20;;;;;;;15.62;nan;96235.44;3553375;40;20474;-73
2021/07/05 07:55:29;;;;;;;2.50;1.30;;;;;;;15.74;nan;96227.34;3550735;40;20483;-72
2021/07/05 07:57:57;;;;;;;4.40;1.53;;;;;;;15.67;nan;96227.06;3550425;40;20564;-71
2021/07/05 08:00:29;;;;;;;2.93;1.30;;;;;;;15.84;nan;96232.56;3549238;40;20911;-71
2021/07/05 08:02:57;;;;;;;6.63;1.57;;;;;;;15.82;nan;96219.53;3547824;40;20693;-72
2021/07/05 08:05:25;;;;;;;3.47;1.43;;;;;;;15.81;nan;96220.50;3550768;40;20507;-72
2021/07/05 08:07:53;;;;;;;2.40;1.37;;;;;;;15.97;nan;96223.31;3548006;40;20776;-71
2021/07/05 08:10:21;;;;;;;2.80;1.63;;;;;;;16.02;nan;96226.34;3546709;40;20483;-72
2021/07/05 08:12:50;;;;;;;2.37;1.40;;;;;;;15.89;nan;96225.88;3545093;40;20860;-74
2021/07/05 08:15:18;;;;;;;6.30;1.20;;;;;;;15.88;nan;96221.59;3545721;40;20502;-73
2021/07/05 08:17:48;;;;;;;4.90;1.13;;;;;;;16.01;nan;96224.72;3547732;40;20436;-71
2021/07/05 08:20:21;;;;;;;2.20;1.20;;;;;;;15.86;nan;96226.19;3552916;40;20855;-72
2021/07/05 08:22:49;;;;;;;3.17;1.43;;;;;;;15.99;nan;96229.31;3550796;40;20782;-72
2021/07/05 08:25:17;;;;;;;1.50;1.10;;;;;;;15.94;nan;96225.44;3558000;40;20538;-72
2021/07/05 08:27:45;;;;;;;3.70;1.80;;;;;;;15.89;nan;96225.03;3552922;40;20462;-73
2021/07/05 08:30:20;;;;;;;3.23;1.00;;;;;;;16.08;nan;96230.22;3554983;40;20911;-74
2021/07/05 08:32:48;;;;;;;1.67;1.23;;;;;;;15.76;nan;96218.31;3552300;40;20476;-76
2021/07/05 08:35:17;;;;;;;4.13;1.47;;;;;;;15.64;nan;96222.06;3547616;40;20534;-74
2021/07/05 08:37:45;;;;;;;2.30;1.20;;;;;;;15.74;nan;96216.78;3551559;40;20593;-74
2021/07/05 08:40:14;;;;;;;2.30;1.20;;;;;;;15.87;nan;96219.09;3554135;40;20774;-73
2021/07/05 08:42:43;;;;;;;2.27;1.40;;;;;;;15.94;nan;96207.78;3554328;40;20468;-73
2021/07/05 08:45:12;;;;;;;1.27;1.00;;;;;;;15.93;nan;96210.56;3547132;40;20462;-73
2021/07/05 08:47:44;;;;;;;1.40;1.10;;;;;;;15.88;nan;96216.31;3551161;40;20465;-72
2021/07/05 08:50:14;;;;;;;1.03;0.80;;;;;;;15.92;nan;96204.47;3544244;40;20498;-72
2021/07/05 08:52:44;;;;;;;1.63;1.10;;;;;;;15.92;nan;96212.38;3550084;40;20456;-72
2021/07/05 08:55:14;;;;;;;2.37;0.97;;;;;;;15.94;nan;96217.53;3553577;40;20454;-72
2021/07/05 08:57:42;;;;;;;2.40;1.20;;;;;;;15.83;nan;96223.81;3549248;40;20783;-72
2021/07/05 09:00:13;;;;;;;14.37;8.00;;;;;;;15.92;nan;96212.38;3549110;40;20728;-74
2021/07/05 09:02:42;;;;;;;3.50;0.80;;;;;;;15.95;nan;96221.81;3557308;40;20846;-74
2021/07/05 09:05:12;;;;;;;3.03;1.20;;;;;;;15.99;nan;96215.25;3546516;40;20844;-71
2021/07/05 09:08:02;;;;;;;1.10;1.00;;;;;;;16.03;nan;96213.97;3549491;40;20479;-72
2021/07/05 09:10:42;;;;;;;2.60;1.53;;;;;;;16.14;nan;96210.31;3548329;40;20979;-73
2021/07/05 09:13:14;;;;;;;3.00;1.10;;;;;;;16.11;nan;96213.22;3546685;40;20928;-72
2021/07/05 09:15:45;;;;;;;2.10;1.00;;;;;;;16.06;nan;96220.78;3547277;40;20505;-73
2021/07/05 09:18:35;;;;;;;1.50;0.80;;;;;;;15.84;nan;96204.38;3550707;40;20771;-72
2021/07/05 09:21:13;;;;;;;2.07;1.00;;;;;;;15.91;nan;96217.81;3550058;40;20526;-73
2021/07/05 09:23:47;;;;;;;1.30;0.80;;;;;;;15.79;nan;96214.53;3547413;40;20670;-73
2021/07/05 09:26:23;;;;;;;1.10;0.70;;;;;;;15.59;nan;96221.69;3549554;40;20588;-73
2021/07/05 09:28:52;;;;;;;1.17;0.60;;;;;;;15.47;nan;96215.78;3548138;40;20447;-72
2021/07/05 09:31:38;;;;;;;1.00;0.70;;;;;;;15.50;nan;96217.28;3551795;40;20524;-73
2021/07/05 09:34:17;;;;;;;1.93;0.80;;;;;;;15.57;nan;96208.63;3550496;40;20618;-74
2021/07/05 09:36:46;;;;;;;1.10;0.80;;;;;;;15.61;nan;96204.72;3549344;40;20797;-74
2021/07/05 09:39:17;;;;;;;1.00;0.70;;;;;;;15.93;nan;96206.09;3547923;40;20533;-73
2021/07/05 09:41:45;;;;;;;2.80;0.80;;;;;;;16.08;nan;96211.72;3552384;40;20580;-73
2021/07/05 09:44:16;;;;;;;1.37;0.70;;;;;;;16.10;nan;96203.66;3550889;40;20466;-71
2021/07/05 09:46:47;;;;;;;1.70;0.93;;;;;;;16.21;nan;96208.75;3550276;40;20577;-74
2021/07/05 09:49:20;;;;;;;1.23;0.73;;;;;;;16.21;nan;96201.63;3546159;40;20974;-74
2021/07/05 09:52:04;;;;;;;1.20;0.90;;;;;;;16.33;nan;96193.50;3547583;40;20858;-73
2021/07/05 09:54:34;;;;;;;3.70;1.33;;;;;;;16.50;nan;96192.63;3548410;40;20811;-73
2021/07/05 09:57:04;;;;;;;4.23;0.80;;;;;;;16.70;nan;96195.09;3550359;40;20896;-74
2021/07/05 09:59:33;;;;;;;1.40;0.70;;;;;;;16.63;nan;96199.38;3547608;40;20489;-72
2021/07/05 10:02:01;;;;;;;6.20;0.70;;;;;;;16.50;nan;96202.38;3547935;40;20476;-73
2021/07/05 10:04:33;;;;;;;1.00;0.73;;;;;;;16.49;nan;96192.81;3550706;40;20469;-72
2021/07/05 10:07:03;;;;;;;1.27;0.70;;;;;;;16.61;nan;96199.50;3553235;40;20701;-73
2021/07/05 10:09:36;;;;;;;0.80;0.60;;;;;;;16.72;nan;96194.00;3552774;40;20469;-73
2021/07/05 10:12:19;;;;;;;2.60;0.60;;;;;;;16.58;nan;96199.81;3553981;40;20743;-73
2021/07/05 10:14:59;;;;;;;1.40;0.87;;;;;;;16.92;nan;96197.31;3549641;40;20749;-73
2021/07/05 10:17:29;;;;;;;1.33;0.90;;;;;;;17.31;nan;96193.41;3550343;40;20583;-73
2021/07/05 10:20:00;;;;;;;0.93;0.60;;;;;;;17.34;nan;96174.56;3552701;40;20468;-74
2021/07/05 10:22:28;;;;;;;1.43;0.90;;;;;;;18.13;nan;96178.69;3551123;40;20743;-75
2021/07/05 10:24:57;;;;;;;1.07;0.70;;;;;;;18.23;nan;96186.50;3548277;40;20467;-73
2021/07/05 10:27:26;;;;;;;0.90;0.60;;;;;;;18.19;nan;96174.56;3550014;40;20849;-74
2021/07/05 10:29:55;;;;;;;0.80;0.60;;;;;;;18.15;nan;96178.50;3550213;40;20901;-72
2021/07/05 10:32:24;;;;;;;1.30;0.90;;;;;;;17.55;nan;96169.69;3553717;40;20806;-73
2021/07/05 10:34:54;;;;;;;3.60;0.77;;;;;;;17.18;nan;96165.53;3547566;40;20470;-73
2021/07/05 10:37:31;;;;;;;0.90;0.70;;;;;;;17.23;nan;96166.88;3549985;40;20450;-73
2021/07/05 10:40:01;;;;;;;1.03;0.60;;;;;;;17.37;nan;96166.31;3551695;40;20552;-75
2021/07/05 10:42:32;;;;;;;2.17;0.60;;;;;;;17.36;nan;96169.94;3551942;40;20711;-74
2021/07/05 10:45:01;;;;;;;1.10;0.60;;;;;;;17.43;nan;96163.03;3554482;40;20545;-72
2021/07/05 10:47:45;;;;;;;1.50;0.63;;;;;;;17.62;nan;96161.13;3549636;40;20581;-73
2021/07/05 10:50:37;;;;;;;2.23;0.70;;;;;;;18.06;nan;96153.81;3545093;40;20510;-74
2021/07/05 10:53:08;;;;;;;0.90;0.60;;;;;;;18.19;nan;96153.38;3547038;40;20688;-73
2021/07/05 10:55:38;;;;;;;1.00;0.80;;;;;;;18.16;nan;96154.50;3550673;40;20904;-73
2021/07/05 10:58:17;;;;;;;0.83;0.63;;;;;;;18.01;nan;96160.59;3548212;40;20932;-73
2021/07/05 11:00:47;;;;;;;1.40;0.77;;;;;;;17.87;nan;96152.28;3546549;40;20467;-74
2021/07/05 11:03:45;;;;;;;3.10;0.97;;;;;;;17.73;nan;96155.53;3548517;40;21332;-72
2021/07/05 11:06:45;;;;;;;2.83;0.80;;;;;;;17.77;nan;96156.88;3546867;40;20501;-74
2021/07/05 11:09:22;;;;;;;0.97;0.63;;;;;;;17.86;nan;96148.00;3552792;40;20486;-73
2021/07/05 11:11:53;;;;;;;2.00;0.90;;;;;;;17.88;nan;96161.09;3552729;40;20816;-74
2021/07/05 11:14:27;;;;;;;0.80;0.60;;;;;;;17.98;nan;96156.47;3550304;40;20807;-75
2021/07/05 11:17:05;;;;;;;1.50;0.67;;;;;;;17.96;nan;96142.56;3550838;40;20758;-73
2021/07/05 11:19:36;;;;;;;1.10;0.60;;;;;;;17.85;nan;96151.63;3553187;40;20490;-72
2021/07/05 11:22:07;;;;;;;0.80;0.50;;;;;;;17.77;nan;96170.09;3551714;40;20847;-73
2021/07/05 11:24:39;;;;;;;2.67;1.00;;;;;;;17.82;nan;96167.81;3545644;40;20458;-74
2021/07/05 11:27:26;;;;;;;1.10;0.77;;;;;;;17.79;nan;96160.19;3552040;40;20459;-73
2021/07/05 11:29:54;;;;;;;0.90;0.67;;;;;;;17.88;nan;96159.25;3541705;40;20800;-74
2021/07/05 11:32:35;;;;;;;1.03;0.70;;;;;;;18.07;nan;96157.28;3548312;40;20747;-74
2021/07/05 11:35:05;;;;;;;2.10;0.63;;;;;;;18.20;nan;96157.66;3552430;40;20699;-73
2021/07/05 11:37:34;;;;;;;3.50;1.17;;;;;;;18.36;nan;96151.53;3550463;40;20550;-75
2021/07/05 11:40:05;;;;;;;1.53;0.83;;;;;;;18.39;nan;96148.56;3546790;40;20566;-75
2021/07/05 11:42:59;;;;;;;1.30;0.60;;;;;;;18.66;nan;96159.81;3550271;40;21220;-73
2021/07/05 11:45:43;;;;;;;0.90;0.70;;;;;;;18.36;nan;96156.84;3551496;40;20835;-73
2021/07/05 11:48:32;;;;;;;1.47;0.87;;;;;;;18.74;nan;96139.44;3548418;40;20513;-73
2021/07/05 11:51:00;;;;;;;2.73;1.10;;;;;;;19.22;nan;96138.72;3547747;40;20774;-74
2021/07/05 11:53:28;;;;;;;1.73;0.80;;;;;;;18.88;nan;96145.09;3549306;40;20440;-73
2021/07/05 11:55:57;;;;;;;1.30;0.80;;;;;;;18.58;nan;96158.00;3550716;40;20811;-74
2021/07/05 11:58:25;;;;;;;1.97;0.80;;;;;;;18.59;nan;96135.81;3556042;40;20454;-75
2021/07/05 12:00:53;;;;;;;2.47;0.80;;;;;;;18.55;nan;96153.03;3554253;40;20459;-73
2021/07/05 12:03:21;;;;;;;2.20;0.80;;;;;;;18.58;nan;96132.34;3549406;40;20460;-73